Time,TemperatureF,DewpointF,PressureIn,WindDirection,WindDirectionDegrees,WindSpeedMPH,WindSpeedGustMPH,Humidity,HourlyPrecipIn,Conditions,Clouds,dailyrainin,SolarRadiationWatts/m^2,SoftwareType,DateUTC
2016-02-14 00:03:00,2.3,-13.8,30.28,WNW,295,5.0,30.0,46,0.00,,,0.00,0,Wunderground v.1.15,2016-02-14 05:03:00,
2016-02-14 00:09:00,2.3,-13.8,30.29,NW,310,15.0,30.0,46,0.00,,,0.00,0,Wunderground v.1.15,2016-02-14 05:09:00,
2016-02-14 00:14:00,2.3,-14.2,30.29,North,355,1.0,24.0,45,0.00,,,0.00,0,Wunderground v.1.15,2016-02-14 05:14:00,
2016-02-14 00:19:00,2.3,-13.8,30.29,WNW,303,2.0,24.0,46,0.00,,,0.00,0,Wunderground v.1.15,2016-02-14 05:19:00,
2016-02-14 00:24:00,2.2,-13.9,30.29,North,350,9.0,16.0,46,0.00,,,0.00,0,Wunderground v.1.15,2016-02-14 05:24:00,
2016-02-14 00:29:00,2.2,-13.5,30.29,West,281,4.0,16.0,47,0.00,,,0.00,0,Wunderground v.1.15,2016-02-14 05:29:00,
2016-02-14 00:34:00,2.2,-13.9,30.29,NW,306,3.0,22.0,46,0.00,,,0.00,0,Wunderground v.1.15,2016-02-14 05:34:00,
2016-02-14 00:39:00,2.1,-14.0,30.30,WNW,290,10.0,22.0,46,0.00,,,0.00,0,Wunderground v.1.15,2016-02-14 05:39:00,
2016-02-14 00:49:00,2.0,-14.1,30.29,NNW,340,13.0,24.0,46,0.00,,,0.00,0,Wunderground v.1.15,2016-02-14 05:49:00,
2016-02-14 00:54:00,2.0,-14.5,30.30,North,355,10.0,22.0,45,0.00,,,0.00,0,Wunderground v.1.15,2016-02-14 05:54:00,
2016-02-14 00:59:00,2.0,-14.5,30.30,WNW,282,13.0,22.0,45,0.00,,,0.00,0,Wunderground v.1.15,2016-02-14 05:59:00,
2016-02-14 01:04:00,1.9,-14.2,30.30,WNW,287,6.0,16.0,46,0.00,,,0.00,0,Wunderground v.1.15,2016-02-14 06:04:00,
2016-02-14 01:09:00,1.9,-14.2,30.30,NNW,346,9.0,16.0,46,0.00,,,0.00,0,Wunderground v.1.15,2016-02-14 06:09:00,
2016-02-14 01:14:00,1.9,-14.2,30.30,NW,318,7.0,13.0,46,0.00,,,0.00,0,Wunderground v.1.15,2016-02-14 06:14:00,
2016-02-14 01:19:00,1.9,-14.2,30.30,NNW,348,17.0,22.0,46,0.00,,,0.00,0,Wunderground v.1.15,2016-02-14 06:19:00,
2016-02-14 01:24:00,1.9,-14.2,30.31,WNW,294,2.0,13.0,46,0.00,,,0.00,0,Wunderground v.1.15,2016-02-14 06:24:00,
2016-02-14 01:29:00,2.0,-14.1,30.31,NNW,342,1.0,13.0,46,0.00,,,0.00,0,Wunderground v.1.15,2016-02-14 06:29:00,
2016-02-14 01:34:00,1.9,-14.2,30.31,NNW,334,2.0,13.0,46,0.00,,,0.00,0,Wunderground v.1.15,2016-02-14 06:34:00,
2016-02-14 01:39:00,1.9,-14.2,30.31,NNW,344,14.0,19.0,46,0.00,,,0.00,0,Wunderground v.1.15,2016-02-14 06:39:00,
2016-02-14 01:44:00,1.8,-14.3,30.31,WNW,298,10.0,19.0,46,0.00,,,0.00,0,Wunderground v.1.15,2016-02-14 06:44:00,
2016-02-14 01:49:00,1.8,-14.3,30.31,North,5,15.0,19.0,46,0.00,,,0.00,0,Wunderground v.1.15,2016-02-14 06:49:00,
2016-02-14 01:54:00,1.7,-13.9,30.31,NW,306,1.0,18.0,47,0.00,,,0.00,0,Wunderground v.1.15,2016-02-14 06:54:00,
2016-02-14 01:59:00,1.8,-13.8,30.32,NNW,328,16.0,18.0,47,0.00,,,0.00,0,Wunderground v.1.15,2016-02-14 06:59:00,
2016-02-14 02:04:00,1.7,-13.9,30.32,NNE,12,9.0,16.0,47,0.00,,,0.00,0,Wunderground v.1.15,2016-02-14 07:04:00,
2016-02-14 02:09:00,1.7,-13.9,30.33,NNW,333,3.0,16.0,47,0.00,,,0.00,0,Wunderground v.1.15,2016-02-14 07:09:00,
2016-02-14 02:14:00,1.6,-13.6,30.33,NW,323,1.0,15.0,48,0.00,,,0.00,0,Wunderground v.1.15,2016-02-14 07:14:00,
2016-02-14 02:19:00,1.6,-13.6,30.33,WNW,297,10.0,16.0,48,0.00,,,0.00,0,Wunderground v.1.15,2016-02-14 07:19:00,
2016-02-14 02:24:00,1.7,-13.1,30.33,NNW,340,2.0,16.0,49,0.00,,,0.00,0,Wunderground v.1.15,2016-02-14 07:24:00,